sensor_id;sensor_type;location;lat;lon;timestamp;P1;durP1;ratioP1;P2;durP2;ratioP2
10144;SDS011;5113;41.822;23.564;2024-01-06T00:01:24;58.03;;;29.57;;
10144;SDS011;5113;41.822;23.564;2024-01-06T00:04:30;66.63;;;33.77;;
10144;SDS011;5113;41.822;23.564;2024-01-06T00:07:39;66.70;;;34.00;;
10144;SDS011;5113;41.822;23.564;2024-01-06T00:10:46;96.00;;;44.23;;
10144;SDS011;5113;41.822;23.564;2024-01-06T00:13:53;125.53;;;51.03;;
10144;SDS011;5113;41.822;23.564;2024-01-06T00:16:59;83.27;;;40.30;;
10144;SDS011;5113;41.822;23.564;2024-01-06T00:20:06;71.93;;;33.30;;
10144;SDS011;5113;41.822;23.564;2024-01-06T00:23:15;69.63;;;31.47;;
10144;SDS011;5113;41.822;23.564;2024-01-06T00:26:22;49.97;;;25.40;;
10144;SDS011;5113;41.822;23.564;2024-01-06T00:29:29;52.60;;;26.30;;
10144;SDS011;5113;41.822;23.564;2024-01-06T00:32:36;39.60;;;21.00;;
10144;SDS011;5113;41.822;23.564;2024-01-06T00:35:43;33.40;;;20.80;;
10144;SDS011;5113;41.822;23.564;2024-01-06T00:38:51;50.40;;;25.57;;
10144;SDS011;5113;41.822;23.564;2024-01-06T00:41:58;42.80;;;23.80;;
10144;SDS011;5113;41.822;23.564;2024-01-06T00:45:05;39.23;;;24.23;;
10144;SDS011;5113;41.822;23.564;2024-01-06T00:48:13;42.07;;;24.80;;
10144;SDS011;5113;41.822;23.564;2024-01-06T00:51:19;57.93;;;26.97;;
10144;SDS011;5113;41.822;23.564;2024-01-06T00:54:28;74.67;;;35.37;;
10144;SDS011;5113;41.822;23.564;2024-01-06T00:57:35;100.73;;;45.03;;
10144;SDS011;5113;41.822;23.564;2024-01-06T01:00:42;84.33;;;37.83;;
10144;SDS011;5113;41.822;23.564;2024-01-06T01:03:49;52.17;;;26.40;;
10144;SDS011;5113;41.822;23.564;2024-01-06T01:06:55;51.00;;;26.43;;
10144;SDS011;5113;41.822;23.564;2024-01-06T01:10:04;57.60;;;27.10;;
10144;SDS011;5113;41.822;23.564;2024-01-06T01:13:11;53.33;;;27.33;;
10144;SDS011;5113;41.822;23.564;2024-01-06T01:16:17;66.27;;;29.20;;
10144;SDS011;5113;41.822;23.564;2024-01-06T01:19:24;64.33;;;29.87;;
10144;SDS011;5113;41.822;23.564;2024-01-06T01:22:31;62.40;;;29.27;;
10144;SDS011;5113;41.822;23.564;2024-01-06T01:25:39;48.83;;;25.70;;
10144;SDS011;5113;41.822;23.564;2024-01-06T01:28:46;29.63;;;19.33;;
10144;SDS011;5113;41.822;23.564;2024-01-06T01:31:53;40.53;;;20.30;;
10144;SDS011;5113;41.822;23.564;2024-01-06T01:34:59;43.53;;;25.47;;
10144;SDS011;5113;41.822;23.564;2024-01-06T01:38:06;41.23;;;22.13;;
10144;SDS011;5113;41.822;23.564;2024-01-06T01:41:15;42.47;;;22.03;;
10144;SDS011;5113;41.822;23.564;2024-01-06T01:44:21;55.80;;;28.03;;
10144;SDS011;5113;41.822;23.564;2024-01-06T01:47:28;43.10;;;24.77;;
10144;SDS011;5113;41.822;23.564;2024-01-06T01:50:35;42.30;;;24.17;;
10144;SDS011;5113;41.822;23.564;2024-01-06T01:53:42;46.00;;;22.77;;
10144;SDS011;5113;41.822;23.564;2024-01-06T01:56:50;43.10;;;22.90;;
10144;SDS011;5113;41.822;23.564;2024-01-06T01:59:57;39.17;;;21.60;;
10144;SDS011;5113;41.822;23.564;2024-01-06T02:03:04;37.73;;;20.60;;
10144;SDS011;5113;41.822;23.564;2024-01-06T02:06:11;36.03;;;20.67;;
10144;SDS011;5113;41.822;23.564;2024-01-06T02:09:18;38.20;;;21.40;;
10144;SDS011;5113;41.822;23.564;2024-01-06T02:12:29;39.17;;;20.40;;
10144;SDS011;5113;41.822;23.564;2024-01-06T02:15:36;35.87;;;20.70;;
10144;SDS011;5113;41.822;23.564;2024-01-06T02:18:43;35.17;;;21.47;;
10144;SDS011;5113;41.822;23.564;2024-01-06T02:21:52;47.37;;;25.27;;
10144;SDS011;5113;41.822;23.564;2024-01-06T02:25:00;49.20;;;26.10;;
10144;SDS011;5113;41.822;23.564;2024-01-06T02:28:07;56.53;;;25.83;;
10144;SDS011;5113;41.822;23.564;2024-01-06T02:31:13;54.60;;;27.17;;
10144;SDS011;5113;41.822;23.564;2024-01-06T02:34:20;65.43;;;29.77;;
10144;SDS011;5113;41.822;23.564;2024-01-06T02:37:28;59.67;;;31.30;;
10144;SDS011;5113;41.822;23.564;2024-01-06T02:40:35;68.83;;;29.37;;
10144;SDS011;5113;41.822;23.564;2024-01-06T02:43:42;62.40;;;31.80;;
10144;SDS011;5113;41.822;23.564;2024-01-06T02:46:48;63.33;;;32.23;;
10144;SDS011;5113;41.822;23.564;2024-01-06T02:49:55;54.23;;;30.30;;
10144;SDS011;5113;41.822;23.564;2024-01-06T02:53:03;58.50;;;28.60;;
10144;SDS011;5113;41.822;23.564;2024-01-06T02:56:10;49.60;;;25.97;;
10144;SDS011;5113;41.822;23.564;2024-01-06T02:59:16;53.03;;;26.40;;
10144;SDS011;5113;41.822;23.564;2024-01-06T03:02:23;43.17;;;24.77;;
10144;SDS011;5113;41.822;23.564;2024-01-06T03:05:30;45.47;;;24.13;;
10144;SDS011;5113;41.822;23.564;2024-01-06T03:08:38;39.80;;;22.70;;
10144;SDS011;5113;41.822;23.564;2024-01-06T03:11:45;44.70;;;22.40;;
10144;SDS011;5113;41.822;23.564;2024-01-06T03:14:52;44.97;;;21.67;;
10144;SDS011;5113;41.822;23.564;2024-01-06T03:17:58;55.37;;;26.53;;
10144;SDS011;5113;41.822;23.564;2024-01-06T03:21:05;53.90;;;28.57;;
10144;SDS011;5113;41.822;23.564;2024-01-06T03:24:25;56.17;;;26.73;;
10144;SDS011;5113;41.822;23.564;2024-01-06T03:27:33;52.03;;;26.60;;
10144;SDS011;5113;41.822;23.564;2024-01-06T03:30:39;47.43;;;25.30;;
10144;SDS011;5113;41.822;23.564;2024-01-06T03:33:46;47.87;;;25.43;;
10144;SDS011;5113;41.822;23.564;2024-01-06T03:36:52;47.93;;;25.43;;
10144;SDS011;5113;41.822;23.564;2024-01-06T03:40:00;46.07;;;25.33;;
10144;SDS011;5113;41.822;23.564;2024-01-06T03:43:07;48.90;;;24.30;;
10144;SDS011;5113;41.822;23.564;2024-01-06T03:46:14;35.67;;;20.40;;
10144;SDS011;5113;41.822;23.564;2024-01-06T03:49:20;41.03;;;21.83;;
10144;SDS011;5113;41.822;23.564;2024-01-06T03:52:27;44.63;;;21.40;;
10144;SDS011;5113;41.822;23.564;2024-01-06T03:55:35;47.00;;;24.57;;
10144;SDS011;5113;41.822;23.564;2024-01-06T03:58:41;43.73;;;23.17;;
10144;SDS011;5113;41.822;23.564;2024-01-06T04:01:48;53.20;;;29.80;;
10144;SDS011;5113;41.822;23.564;2024-01-06T04:04:55;39.53;;;22.40;;
10144;SDS011;5113;41.822;23.564;2024-01-06T04:08:01;43.97;;;22.17;;
10144;SDS011;5113;41.822;23.564;2024-01-06T04:11:09;45.97;;;26.87;;
10144;SDS011;5113;41.822;23.564;2024-01-06T04:14:17;55.50;;;26.17;;
10144;SDS011;5113;41.822;23.564;2024-01-06T04:17:23;46.87;;;26.97;;
10144;SDS011;5113;41.822;23.564;2024-01-06T04:20:32;73.93;;;36.30;;
10144;SDS011;5113;41.822;23.564;2024-01-06T04:23:38;62.37;;;36.37;;
10144;SDS011;5113;41.822;23.564;2024-01-06T04:26:48;48.33;;;26.73;;
10144;SDS011;5113;41.822;23.564;2024-01-06T04:29:55;49.20;;;26.57;;
10144;SDS011;5113;41.822;23.564;2024-01-06T04:33:01;50.93;;;30.47;;
10144;SDS011;5113;41.822;23.564;2024-01-06T04:36:09;55.17;;;28.50;;
10144;SDS011;5113;41.822;23.564;2024-01-06T04:39:16;72.40;;;34.93;;
10144;SDS011;5113;41.822;23.564;2024-01-06T04:42:24;60.93;;;31.43;;
10144;SDS011;5113;41.822;23.564;2024-01-06T04:45:31;72.50;;;36.17;;
10144;SDS011;5113;41.822;23.564;2024-01-06T04:48:38;66.13;;;35.13;;
10144;SDS011;5113;41.822;23.564;2024-01-06T04:51:48;67.10;;;36.37;;
10144;SDS011;5113;41.822;23.564;2024-01-06T04:54:55;64.53;;;35.27;;
10144;SDS011;5113;41.822;23.564;2024-01-06T04:58:03;63.17;;;33.50;;
10144;SDS011;5113;41.822;23.564;2024-01-06T05:01:10;57.53;;;30.63;;
10144;SDS011;5113;41.822;23.564;2024-01-06T05:04:17;51.23;;;28.53;;
10144;SDS011;5113;41.822;23.564;2024-01-06T05:07:23;68.43;;;35.27;;
10144;SDS011;5113;41.822;23.564;2024-01-06T05:10:30;79.47;;;38.70;;
10144;SDS011;5113;41.822;23.564;2024-01-06T05:13:38;80.53;;;41.07;;
10144;SDS011;5113;41.822;23.564;2024-01-06T05:16:44;74.00;;;39.07;;
10144;SDS011;5113;41.822;23.564;2024-01-06T05:19:51;61.70;;;32.83;;
10144;SDS011;5113;41.822;23.564;2024-01-06T05:22:58;60.13;;;37.87;;
10144;SDS011;5113;41.822;23.564;2024-01-06T05:26:04;73.47;;;45.23;;
10144;SDS011;5113;41.822;23.564;2024-01-06T05:29:12;59.00;;;39.63;;
10144;SDS011;5113;41.822;23.564;2024-01-06T05:32:19;43.73;;;26.37;;
10144;SDS011;5113;41.822;23.564;2024-01-06T05:35:26;57.97;;;32.40;;
10144;SDS011;5113;41.822;23.564;2024-01-06T05:38:33;73.17;;;35.30;;
10144;SDS011;5113;41.822;23.564;2024-01-06T05:41:39;90.20;;;39.97;;
10144;SDS011;5113;41.822;23.564;2024-01-06T05:44:48;112.40;;;47.77;;
10144;SDS011;5113;41.822;23.564;2024-01-06T05:47:55;65.80;;;34.63;;
10144;SDS011;5113;41.822;23.564;2024-01-06T05:51:03;59.63;;;34.37;;
10144;SDS011;5113;41.822;23.564;2024-01-06T05:54:11;53.03;;;32.27;;
10144;SDS011;5113;41.822;23.564;2024-01-06T05:57:18;56.20;;;33.10;;
10144;SDS011;5113;41.822;23.564;2024-01-06T06:00:26;60.07;;;30.73;;
10144;SDS011;5113;41.822;23.564;2024-01-06T06:03:36;52.43;;;28.20;;
10144;SDS011;5113;41.822;23.564;2024-01-06T06:06:43;47.97;;;28.13;;
10144;SDS011;5113;41.822;23.564;2024-01-06T06:09:50;94.03;;;45.27;;
10144;SDS011;5113;41.822;23.564;2024-01-06T06:12:57;61.90;;;36.70;;
10144;SDS011;5113;41.822;23.564;2024-01-06T06:16:06;79.40;;;43.07;;
10144;SDS011;5113;41.822;23.564;2024-01-06T06:19:13;74.03;;;38.93;;
10144;SDS011;5113;41.822;23.564;2024-01-06T06:22:20;81.23;;;49.53;;
10144;SDS011;5113;41.822;23.564;2024-01-06T06:25:27;74.73;;;44.23;;
10144;SDS011;5113;41.822;23.564;2024-01-06T06:28:33;79.63;;;46.37;;
10144;SDS011;5113;41.822;23.564;2024-01-06T06:31:42;84.00;;;43.53;;
10144;SDS011;5113;41.822;23.564;2024-01-06T06:34:50;90.13;;;46.67;;
10144;SDS011;5113;41.822;23.564;2024-01-06T06:37:56;97.70;;;52.90;;
10144;SDS011;5113;41.822;23.564;2024-01-06T06:41:03;84.40;;;48.50;;
10144;SDS011;5113;41.822;23.564;2024-01-06T06:44:10;65.23;;;36.57;;
10144;SDS011;5113;41.822;23.564;2024-01-06T06:47:19;40.07;;;24.80;;
10144;SDS011;5113;41.822;23.564;2024-01-06T06:50:25;40.20;;;26.77;;
10144;SDS011;5113;41.822;23.564;2024-01-06T06:53:32;44.63;;;28.77;;
10144;SDS011;5113;41.822;23.564;2024-01-06T06:56:39;69.40;;;37.53;;
10144;SDS011;5113;41.822;23.564;2024-01-06T06:59:45;65.87;;;38.63;;
10144;SDS011;5113;41.822;23.564;2024-01-06T07:02:54;64.83;;;36.13;;
10144;SDS011;5113;41.822;23.564;2024-01-06T07:06:00;64.63;;;36.73;;
10144;SDS011;5113;41.822;23.564;2024-01-06T07:09:07;64.47;;;37.33;;
10144;SDS011;5113;41.822;23.564;2024-01-06T07:12:14;66.67;;;32.87;;
10144;SDS011;5113;41.822;23.564;2024-01-06T07:15:21;73.10;;;38.03;;
10144;SDS011;5113;41.822;23.564;2024-01-06T07:18:29;72.17;;;40.23;;
10144;SDS011;5113;41.822;23.564;2024-01-06T07:21:35;67.60;;;35.87;;
10144;SDS011;5113;41.822;23.564;2024-01-06T07:24:43;63.77;;;38.03;;
10144;SDS011;5113;41.822;23.564;2024-01-06T07:27:49;67.10;;;37.23;;
10144;SDS011;5113;41.822;23.564;2024-01-06T07:31:00;92.30;;;47.87;;
10144;SDS011;5113;41.822;23.564;2024-01-06T07:34:08;106.13;;;51.57;;
10144;SDS011;5113;41.822;23.564;2024-01-06T07:37:15;71.63;;;41.10;;
10144;SDS011;5113;41.822;23.564;2024-01-06T07:40:22;67.33;;;40.53;;
10144;SDS011;5113;41.822;23.564;2024-01-06T07:43:30;84.13;;;44.07;;
10144;SDS011;5113;41.822;23.564;2024-01-06T07:46:36;78.37;;;40.17;;
10144;SDS011;5113;41.822;23.564;2024-01-06T07:49:46;80.23;;;42.33;;
10144;SDS011;5113;41.822;23.564;2024-01-06T07:52:53;79.80;;;42.00;;
10144;SDS011;5113;41.822;23.564;2024-01-06T07:56:00;76.47;;;40.67;;
10144;SDS011;5113;41.822;23.564;2024-01-06T07:59:07;105.10;;;51.00;;
10144;SDS011;5113;41.822;23.564;2024-01-06T08:02:14;91.27;;;47.50;;
10144;SDS011;5113;41.822;23.564;2024-01-06T08:05:21;131.37;;;59.90;;
10144;SDS011;5113;41.822;23.564;2024-01-06T08:08:28;114.27;;;57.67;;
10144;SDS011;5113;41.822;23.564;2024-01-06T08:11:34;90.20;;;49.17;;
10144;SDS011;5113;41.822;23.564;2024-01-06T08:14:41;108.23;;;57.27;;
10144;SDS011;5113;41.822;23.564;2024-01-06T08:17:48;184.27;;;78.33;;
10144;SDS011;5113;41.822;23.564;2024-01-06T08:20:56;158.70;;;76.47;;
10144;SDS011;5113;41.822;23.564;2024-01-06T08:24:03;144.97;;;72.50;;
10144;SDS011;5113;41.822;23.564;2024-01-06T08:27:09;148.07;;;67.53;;
10144;SDS011;5113;41.822;23.564;2024-01-06T08:30:16;98.73;;;49.43;;
10144;SDS011;5113;41.822;23.564;2024-01-06T08:33:24;82.43;;;40.50;;
10144;SDS011;5113;41.822;23.564;2024-01-06T08:36:32;135.87;;;58.97;;
10144;SDS011;5113;41.822;23.564;2024-01-06T08:39:39;119.87;;;56.57;;
10144;SDS011;5113;41.822;23.564;2024-01-06T08:42:46;131.20;;;55.47;;
10144;SDS011;5113;41.822;23.564;2024-01-06T08:45:52;187.07;;;76.87;;
10144;SDS011;5113;41.822;23.564;2024-01-06T08:48:59;156.73;;;68.93;;
10144;SDS011;5113;41.822;23.564;2024-01-06T08:52:08;146.67;;;66.70;;
10144;SDS011;5113;41.822;23.564;2024-01-06T08:55:14;113.73;;;51.43;;
10144;SDS011;5113;41.822;23.564;2024-01-06T08:58:22;76.53;;;42.43;;
10144;SDS011;5113;41.822;23.564;2024-01-06T09:01:28;84.10;;;40.90;;
10144;SDS011;5113;41.822;23.564;2024-01-06T09:04:36;79.50;;;43.27;;
10144;SDS011;5113;41.822;23.564;2024-01-06T09:07:44;66.80;;;36.23;;
10144;SDS011;5113;41.822;23.564;2024-01-06T09:10:59;72.63;;;36.40;;
10144;SDS011;5113;41.822;23.564;2024-01-06T09:14:06;115.90;;;52.30;;
10144;SDS011;5113;41.822;23.564;2024-01-06T09:17:12;52.80;;;28.03;;
10144;SDS011;5113;41.822;23.564;2024-01-06T09:20:19;65.57;;;34.50;;
10144;SDS011;5113;41.822;23.564;2024-01-06T09:23:29;56.83;;;29.63;;
10144;SDS011;5113;41.822;23.564;2024-01-06T09:26:36;65.93;;;32.80;;
10144;SDS011;5113;41.822;23.564;2024-01-06T09:29:43;52.23;;;29.73;;
10144;SDS011;5113;41.822;23.564;2024-01-06T09:32:49;41.43;;;25.50;;
10144;SDS011;5113;41.822;23.564;2024-01-06T09:35:56;126.83;;;44.00;;
10144;SDS011;5113;41.822;23.564;2024-01-06T09:39:04;64.27;;;33.03;;
10144;SDS011;5113;41.822;23.564;2024-01-06T09:42:12;54.83;;;29.77;;
10144;SDS011;5113;41.822;23.564;2024-01-06T09:45:19;70.73;;;37.13;;
10144;SDS011;5113;41.822;23.564;2024-01-06T09:48:29;62.00;;;32.87;;
10144;SDS011;5113;41.822;23.564;2024-01-06T09:51:37;69.10;;;39.50;;
10144;SDS011;5113;41.822;23.564;2024-01-06T09:54:49;63.00;;;36.13;;
10144;SDS011;5113;41.822;23.564;2024-01-06T09:57:58;47.57;;;27.23;;
10144;SDS011;5113;41.822;23.564;2024-01-06T10:01:07;78.70;;;40.27;;
10144;SDS011;5113;41.822;23.564;2024-01-06T10:04:15;60.80;;;31.13;;
10144;SDS011;5113;41.822;23.564;2024-01-06T10:07:27;58.97;;;34.97;;
10144;SDS011;5113;41.822;23.564;2024-01-06T10:10:36;51.20;;;28.10;;
10144;SDS011;5113;41.822;23.564;2024-01-06T10:13:44;47.73;;;27.07;;
10144;SDS011;5113;41.822;23.564;2024-01-06T10:16:50;61.30;;;32.80;;
10144;SDS011;5113;41.822;23.564;2024-01-06T10:19:57;53.60;;;31.73;;
10144;SDS011;5113;41.822;23.564;2024-01-06T10:23:06;71.00;;;35.27;;
10144;SDS011;5113;41.822;23.564;2024-01-06T10:26:14;65.00;;;36.93;;
10144;SDS011;5113;41.822;23.564;2024-01-06T10:29:20;65.77;;;37.53;;
10144;SDS011;5113;41.822;23.564;2024-01-06T10:32:27;55.43;;;33.40;;
10144;SDS011;5113;41.822;23.564;2024-01-06T10:35:37;50.30;;;30.30;;
10144;SDS011;5113;41.822;23.564;2024-01-06T10:38:44;57.07;;;30.57;;
10144;SDS011;5113;41.822;23.564;2024-01-06T10:41:52;47.00;;;28.10;;
10144;SDS011;5113;41.822;23.564;2024-01-06T10:45:01;90.20;;;49.50;;
10144;SDS011;5113;41.822;23.564;2024-01-06T10:48:08;87.47;;;47.13;;
10144;SDS011;5113;41.822;23.564;2024-01-06T10:51:14;89.20;;;45.93;;
10144;SDS011;5113;41.822;23.564;2024-01-06T10:54:21;74.20;;;38.37;;
10144;SDS011;5113;41.822;23.564;2024-01-06T10:57:30;92.73;;;45.33;;
10144;SDS011;5113;41.822;23.564;2024-01-06T11:00:38;46.67;;;26.57;;
10144;SDS011;5113;41.822;23.564;2024-01-06T11:03:44;47.83;;;22.93;;
10144;SDS011;5113;41.822;23.564;2024-01-06T11:06:53;20.47;;;15.03;;
10144;SDS011;5113;41.822;23.564;2024-01-06T11:10:02;26.30;;;16.70;;
10144;SDS011;5113;41.822;23.564;2024-01-06T11:13:14;28.83;;;16.33;;
10144;SDS011;5113;41.822;23.564;2024-01-06T11:16:33;26.47;;;15.53;;
10144;SDS011;5113;41.822;23.564;2024-01-06T11:19:44;33.07;;;17.73;;
10144;SDS011;5113;41.822;23.564;2024-01-06T11:22:52;73.53;;;32.37;;
10144;SDS011;5113;41.822;23.564;2024-01-06T11:26:00;89.60;;;42.60;;
10144;SDS011;5113;41.822;23.564;2024-01-06T11:29:09;37.93;;;20.70;;
10144;SDS011;5113;41.822;23.564;2024-01-06T11:32:16;30.17;;;16.07;;
10144;SDS011;5113;41.822;23.564;2024-01-06T11:35:32;20.13;;;13.30;;
10144;SDS011;5113;41.822;23.564;2024-01-06T11:38:38;50.83;;;24.37;;
10144;SDS011;5113;41.822;23.564;2024-01-06T11:41:47;48.70;;;24.93;;
10144;SDS011;5113;41.822;23.564;2024-01-06T11:44:57;46.70;;;25.27;;
10144;SDS011;5113;41.822;23.564;2024-01-06T11:48:11;43.83;;;28.40;;
10144;SDS011;5113;41.822;23.564;2024-01-06T11:51:18;58.77;;;31.00;;
10144;SDS011;5113;41.822;23.564;2024-01-06T11:54:25;72.23;;;36.87;;
10144;SDS011;5113;41.822;23.564;2024-01-06T11:57:32;63.80;;;32.10;;
10144;SDS011;5113;41.822;23.564;2024-01-06T12:00:40;60.50;;;31.60;;
10144;SDS011;5113;41.822;23.564;2024-01-06T12:03:52;50.33;;;27.50;;
10144;SDS011;5113;41.822;23.564;2024-01-06T12:07:06;55.07;;;28.67;;
10144;SDS011;5113;41.822;23.564;2024-01-06T12:10:13;49.23;;;25.03;;
10144;SDS011;5113;41.822;23.564;2024-01-06T12:13:20;32.17;;;19.00;;
10144;SDS011;5113;41.822;23.564;2024-01-06T12:16:29;32.27;;;17.60;;
10144;SDS011;5113;41.822;23.564;2024-01-06T12:19:37;36.97;;;20.90;;
10144;SDS011;5113;41.822;23.564;2024-01-06T12:22:44;35.13;;;18.90;;
10144;SDS011;5113;41.822;23.564;2024-01-06T12:25:51;32.00;;;17.13;;
10144;SDS011;5113;41.822;23.564;2024-01-06T12:28:58;29.23;;;17.03;;
10144;SDS011;5113;41.822;23.564;2024-01-06T12:32:06;210.50;;;64.47;;
10144;SDS011;5113;41.822;23.564;2024-01-06T12:35:13;55.37;;;23.63;;
10144;SDS011;5113;41.822;23.564;2024-01-06T12:38:21;50.57;;;24.70;;
10144;SDS011;5113;41.822;23.564;2024-01-06T12:41:27;17.40;;;9.80;;
10144;SDS011;5113;41.822;23.564;2024-01-06T12:44:34;18.70;;;10.50;;
10144;SDS011;5113;41.822;23.564;2024-01-06T12:47:44;12.07;;;6.33;;
10144;SDS011;5113;41.822;23.564;2024-01-06T12:50:52;10.57;;;7.03;;
10144;SDS011;5113;41.822;23.564;2024-01-06T12:53:58;33.53;;;19.10;;
10144;SDS011;5113;41.822;23.564;2024-01-06T12:57:05;34.50;;;16.57;;
10144;SDS011;5113;41.822;23.564;2024-01-06T13:00:12;18.23;;;10.80;;
10144;SDS011;5113;41.822;23.564;2024-01-06T13:03:21;20.03;;;12.57;;
10144;SDS011;5113;41.822;23.564;2024-01-06T13:06:27;15.67;;;9.70;;
10144;SDS011;5113;41.822;23.564;2024-01-06T13:09:35;25.47;;;17.50;;
10144;SDS011;5113;41.822;23.564;2024-01-06T13:12:42;20.47;;;11.73;;
10144;SDS011;5113;41.822;23.564;2024-01-06T13:15:49;13.07;;;8.13;;
10144;SDS011;5113;41.822;23.564;2024-01-06T13:18:57;10.43;;;8.20;;
10144;SDS011;5113;41.822;23.564;2024-01-06T13:22:04;11.67;;;7.67;;
10144;SDS011;5113;41.822;23.564;2024-01-06T13:25:10;24.10;;;11.87;;
10144;SDS011;5113;41.822;23.564;2024-01-06T13:28:17;10.80;;;7.23;;
10144;SDS011;5113;41.822;23.564;2024-01-06T13:31:23;11.20;;;7.50;;
10144;SDS011;5113;41.822;23.564;2024-01-06T13:34:33;22.37;;;10.20;;
10144;SDS011;5113;41.822;23.564;2024-01-06T13:37:40;20.83;;;14.23;;
10144;SDS011;5113;41.822;23.564;2024-01-06T13:40:48;11.77;;;9.30;;
10144;SDS011;5113;41.822;23.564;2024-01-06T13:43:55;7.50;;;5.87;;
10144;SDS011;5113;41.822;23.564;2024-01-06T13:47:02;11.83;;;8.37;;
10144;SDS011;5113;41.822;23.564;2024-01-06T13:50:10;12.00;;;8.57;;
10144;SDS011;5113;41.822;23.564;2024-01-06T13:53:17;28.10;;;23.60;;
10144;SDS011;5113;41.822;23.564;2024-01-06T13:56:24;18.27;;;11.53;;
10144;SDS011;5113;41.822;23.564;2024-01-06T13:59:31;24.40;;;14.23;;
10144;SDS011;5113;41.822;23.564;2024-01-06T14:02:37;17.00;;;8.33;;
10144;SDS011;5113;41.822;23.564;2024-01-06T14:05:45;12.20;;;7.87;;
10144;SDS011;5113;41.822;23.564;2024-01-06T14:08:52;18.00;;;12.50;;
10144;SDS011;5113;41.822;23.564;2024-01-06T14:11:59;14.20;;;9.57;;
10144;SDS011;5113;41.822;23.564;2024-01-06T14:15:06;12.87;;;8.97;;
10144;SDS011;5113;41.822;23.564;2024-01-06T14:18:13;20.67;;;11.90;;
10144;SDS011;5113;41.822;23.564;2024-01-06T14:21:22;26.37;;;13.13;;
10144;SDS011;5113;41.822;23.564;2024-01-06T14:24:29;20.07;;;10.83;;
10144;SDS011;5113;41.822;23.564;2024-01-06T14:27:36;44.93;;;23.40;;
10144;SDS011;5113;41.822;23.564;2024-01-06T14:30:43;24.70;;;17.50;;
10144;SDS011;5113;41.822;23.564;2024-01-06T14:33:49;19.43;;;11.63;;
10144;SDS011;5113;41.822;23.564;2024-01-06T14:36:59;34.87;;;17.57;;
10144;SDS011;5113;41.822;23.564;2024-01-06T14:40:06;31.80;;;18.33;;
10144;SDS011;5113;41.822;23.564;2024-01-06T14:43:13;49.10;;;25.27;;
10144;SDS011;5113;41.822;23.564;2024-01-06T14:46:20;62.50;;;40.70;;
10144;SDS011;5113;41.822;23.564;2024-01-06T14:49:26;46.50;;;27.87;;
10144;SDS011;5113;41.822;23.564;2024-01-06T14:52:34;53.53;;;29.00;;
10144;SDS011;5113;41.822;23.564;2024-01-06T14:55:41;37.60;;;21.87;;
10144;SDS011;5113;41.822;23.564;2024-01-06T14:58:48;76.93;;;39.53;;
10144;SDS011;5113;41.822;23.564;2024-01-06T15:01:54;95.23;;;50.23;;
10144;SDS011;5113;41.822;23.564;2024-01-06T15:05:01;67.33;;;36.57;;
10144;SDS011;5113;41.822;23.564;2024-01-06T15:08:10;87.00;;;47.90;;
10144;SDS011;5113;41.822;23.564;2024-01-06T15:11:17;134.10;;;69.07;;
10144;SDS011;5113;41.822;23.564;2024-01-06T15:14:24;67.03;;;35.00;;
10144;SDS011;5113;41.822;23.564;2024-01-06T15:17:31;162.73;;;71.63;;
10144;SDS011;5113;41.822;23.564;2024-01-06T15:20:37;65.07;;;33.70;;
10144;SDS011;5113;41.822;23.564;2024-01-06T15:23:46;46.97;;;27.20;;
10144;SDS011;5113;41.822;23.564;2024-01-06T15:26:53;55.67;;;30.27;;
10144;SDS011;5113;41.822;23.564;2024-01-06T15:30:00;48.27;;;28.37;;
10144;SDS011;5113;41.822;23.564;2024-01-06T15:33:11;53.10;;;30.80;;
10144;SDS011;5113;41.822;23.564;2024-01-06T15:36:19;70.80;;;34.67;;
10144;SDS011;5113;41.822;23.564;2024-01-06T15:39:28;79.93;;;40.63;;
10144;SDS011;5113;41.822;23.564;2024-01-06T15:42:35;94.17;;;47.10;;
10144;SDS011;5113;41.822;23.564;2024-01-06T15:45:41;112.40;;;44.57;;
10144;SDS011;5113;41.822;23.564;2024-01-06T15:48:48;102.83;;;43.50;;
10144;SDS011;5113;41.822;23.564;2024-01-06T15:51:54;58.80;;;31.83;;
10144;SDS011;5113;41.822;23.564;2024-01-06T15:55:04;50.53;;;28.07;;
10144;SDS011;5113;41.822;23.564;2024-01-06T15:58:12;97.07;;;51.33;;
10144;SDS011;5113;41.822;23.564;2024-01-06T16:01:19;102.33;;;55.90;;
10144;SDS011;5113;41.822;23.564;2024-01-06T16:04:27;148.53;;;73.60;;
10144;SDS011;5113;41.822;23.564;2024-01-06T16:07:33;210.07;;;99.77;;
10144;SDS011;5113;41.822;23.564;2024-01-06T16:10:42;243.57;;;112.40;;
10144;SDS011;5113;41.822;23.564;2024-01-06T16:13:48;202.33;;;106.27;;
10144;SDS011;5113;41.822;23.564;2024-01-06T16:16:55;84.80;;;44.17;;
10144;SDS011;5113;41.822;23.564;2024-01-06T16:20:05;167.93;;;87.93;;
10144;SDS011;5113;41.822;23.564;2024-01-06T16:23:13;170.23;;;89.33;;
10144;SDS011;5113;41.822;23.564;2024-01-06T16:26:23;165.60;;;85.97;;
10144;SDS011;5113;41.822;23.564;2024-01-06T16:29:29;195.10;;;105.20;;
10144;SDS011;5113;41.822;23.564;2024-01-06T16:32:36;223.07;;;115.57;;
10144;SDS011;5113;41.822;23.564;2024-01-06T16:35:42;219.17;;;110.67;;
10144;SDS011;5113;41.822;23.564;2024-01-06T16:38:50;190.20;;;102.90;;
10144;SDS011;5113;41.822;23.564;2024-01-06T16:41:58;185.63;;;100.47;;
10144;SDS011;5113;41.822;23.564;2024-01-06T16:45:06;170.13;;;97.63;;
10144;SDS011;5113;41.822;23.564;2024-01-06T16:48:13;158.20;;;90.63;;
10144;SDS011;5113;41.822;23.564;2024-01-06T16:51:20;147.57;;;78.83;;
10144;SDS011;5113;41.822;23.564;2024-01-06T16:54:27;168.73;;;96.70;;
10144;SDS011;5113;41.822;23.564;2024-01-06T16:57:36;163.67;;;90.13;;
10144;SDS011;5113;41.822;23.564;2024-01-06T17:00:43;170.03;;;91.43;;
10144;SDS011;5113;41.822;23.564;2024-01-06T17:03:50;142.40;;;83.33;;
10144;SDS011;5113;41.822;23.564;2024-01-06T17:06:57;190.40;;;104.53;;
10144;SDS011;5113;41.822;23.564;2024-01-06T17:10:05;219.20;;;116.40;;
10144;SDS011;5113;41.822;23.564;2024-01-06T17:13:14;149.93;;;80.07;;
10144;SDS011;5113;41.822;23.564;2024-01-06T17:16:21;180.83;;;101.83;;
10144;SDS011;5113;41.822;23.564;2024-01-06T17:19:28;116.03;;;65.77;;
10144;SDS011;5113;41.822;23.564;2024-01-06T17:22:36;133.27;;;75.47;;
10144;SDS011;5113;41.822;23.564;2024-01-06T17:25:43;110.57;;;61.30;;
10144;SDS011;5113;41.822;23.564;2024-01-06T17:28:51;73.07;;;45.23;;
10144;SDS011;5113;41.822;23.564;2024-01-06T17:31:58;115.93;;;64.93;;
10144;SDS011;5113;41.822;23.564;2024-01-06T17:35:05;95.97;;;54.37;;
10144;SDS011;5113;41.822;23.564;2024-01-06T17:38:12;102.30;;;52.93;;
10144;SDS011;5113;41.822;23.564;2024-01-06T17:41:19;146.17;;;69.60;;
10144;SDS011;5113;41.822;23.564;2024-01-06T17:44:27;160.63;;;83.17;;
10144;SDS011;5113;41.822;23.564;2024-01-06T17:47:34;128.27;;;65.40;;
10144;SDS011;5113;41.822;23.564;2024-01-06T17:50:42;109.60;;;57.33;;
10144;SDS011;5113;41.822;23.564;2024-01-06T17:53:49;109.83;;;53.57;;
10144;SDS011;5113;41.822;23.564;2024-01-06T17:56:55;104.57;;;54.97;;
10144;SDS011;5113;41.822;23.564;2024-01-06T18:00:07;107.97;;;57.30;;
10144;SDS011;5113;41.822;23.564;2024-01-06T18:03:17;129.43;;;61.53;;
10144;SDS011;5113;41.822;23.564;2024-01-06T18:06:24;148.00;;;73.40;;
10144;SDS011;5113;41.822;23.564;2024-01-06T18:09:33;131.50;;;68.30;;
10144;SDS011;5113;41.822;23.564;2024-01-06T18:12:39;220.10;;;90.97;;